createdAt,value
2018-09-28T00:00:23.329Z,7.37
2018-09-28T00:02:51.478Z,5.90
2018-09-28T00:05:19.657Z,5.83
2018-09-28T00:07:47.871Z,7.80
2018-09-28T00:10:16.029Z,6.50
2018-09-28T00:12:44.180Z,6.40
2018-09-28T00:15:12.350Z,6.77
2018-09-28T00:17:40.501Z,8.63
2018-09-28T00:20:08.683Z,5.40
2018-09-28T00:22:36.841Z,7.67
2018-09-28T00:25:05.002Z,8.10
2018-09-28T00:27:33.158Z,5.83
2018-09-28T00:30:01.333Z,7.30
2018-09-28T00:32:29.486Z,6.10
2018-09-28T00:34:57.662Z,8.20
2018-09-28T00:37:25.805Z,6.17
2018-09-28T00:39:53.960Z,6.23
2018-09-28T00:42:22.117Z,7.10
2018-09-28T00:44:50.293Z,6.57
2018-09-28T00:47:18.459Z,6.37
2018-09-28T00:49:46.605Z,6.57
2018-09-28T00:52:14.737Z,6.87
2018-09-28T00:54:42.914Z,6.40
2018-09-28T00:57:11.086Z,5.73
2018-09-28T00:59:39.285Z,6.33
2018-09-28T01:02:07.433Z,6.40
2018-09-28T01:04:35.580Z,6.87
2018-09-28T01:07:03.725Z,6.73
2018-09-28T01:09:31.885Z,6.80
2018-09-28T01:12:00.050Z,5.73
2018-09-28T01:14:28.246Z,7.10
2018-09-28T01:16:56.445Z,6.20
2018-09-28T01:19:24.635Z,20.13
2018-09-28T01:21:52.791Z,7.40
2018-09-28T01:24:20.953Z,7.30
2018-09-28T01:26:49.093Z,7.80
2018-09-28T01:29:17.269Z,8.03
2018-09-28T01:31:45.404Z,6.03
2018-09-28T01:34:13.795Z,6.80
2018-09-28T01:36:41.933Z,7.80
2018-09-28T01:39:10.765Z,6.57
2018-09-28T01:41:39.154Z,11.90
2018-09-28T01:44:07.293Z,7.33
2018-09-28T01:46:35.479Z,7.63
2018-09-28T01:49:03.602Z,7.90
2018-09-28T01:51:31.754Z,5.43
2018-09-28T01:53:59.914Z,6.53
2018-09-28T01:56:28.083Z,7.00
2018-09-28T01:58:56.270Z,6.70
2018-09-28T02:01:24.633Z,5.87
2018-09-28T02:03:52.780Z,5.90
2018-09-28T02:06:20.928Z,6.40
2018-09-28T02:08:49.094Z,6.60
2018-09-28T02:11:17.237Z,6.83
2018-09-28T02:13:45.393Z,6.80
2018-09-28T02:16:13.545Z,6.33
2018-09-28T02:18:41.681Z,6.30
2018-09-28T02:21:09.833Z,6.97
2018-09-28T02:23:37.987Z,6.43
2018-09-28T02:26:06.139Z,6.00
2018-09-28T02:28:34.289Z,6.57
2018-09-28T02:31:02.444Z,6.33
2018-09-28T02:33:30.584Z,7.90
2018-09-28T02:35:58.762Z,6.93
2018-09-28T02:38:26.917Z,17.03
2018-09-28T02:40:55.064Z,6.70
2018-09-28T02:43:23.213Z,7.00
2018-09-28T02:45:51.356Z,9.23
2018-09-28T02:48:19.484Z,6.43
2018-09-28T02:50:47.636Z,7.57
2018-09-28T02:53:17.629Z,7.07
2018-09-28T02:55:46.689Z,9.03
2018-09-28T02:58:14.863Z,8.13
2018-09-28T03:00:43.345Z,7.83
2018-09-28T03:03:11.525Z,9.23
2018-09-28T03:05:39.911Z,6.47
2018-09-28T03:08:08.385Z,6.73
2018-09-28T03:10:36.561Z,6.97
2018-09-28T03:13:04.985Z,10.27
2018-09-28T03:15:33.119Z,6.00
2018-09-28T03:18:01.288Z,7.43
2018-09-28T03:20:29.453Z,6.43
2018-09-28T03:22:57.602Z,6.13
2018-09-28T03:25:25.749Z,6.13
2018-09-28T03:27:53.953Z,8.70
2018-09-28T03:30:22.105Z,6.80
2018-09-28T03:32:50.261Z,8.07
2018-09-28T03:35:18.782Z,7.67
2018-09-28T03:37:46.949Z,7.30
2018-09-28T03:40:15.125Z,7.20
2018-09-28T03:42:43.265Z,8.00
2018-09-28T03:45:11.395Z,6.27
2018-09-28T03:47:40.869Z,6.40
2018-09-28T03:50:09.046Z,6.70
2018-09-28T03:52:37.204Z,6.27
2018-09-28T03:55:05.372Z,8.30
2018-09-28T03:57:33.548Z,6.87
2018-09-28T04:00:01.708Z,7.10
2018-09-28T04:02:29.845Z,6.97
2018-09-28T04:04:57.997Z,6.37
2018-09-28T04:07:26.171Z,8.67
2018-09-28T04:09:54.312Z,9.63
2018-09-28T04:12:22.473Z,7.47
2018-09-28T04:14:50.608Z,6.80
2018-09-28T04:17:18.795Z,10.90
2018-09-28T04:19:46.957Z,6.90
2018-09-28T04:22:15.106Z,6.63
2018-09-28T04:24:43.250Z,6.60
2018-09-28T04:27:11.402Z,6.30
2018-09-28T04:29:39.552Z,8.40
2018-09-28T04:32:07.708Z,8.50
2018-09-28T04:34:35.865Z,6.80
2018-09-28T04:37:04.014Z,8.83
2018-09-28T04:39:32.168Z,6.30
2018-09-28T04:42:00.298Z,6.70
2018-09-28T04:44:28.440Z,7.50
2018-09-28T04:46:56.601Z,8.30
2018-09-28T04:49:24.772Z,6.70
2018-09-28T04:51:52.927Z,8.37
2018-09-28T04:54:21.140Z,6.83
2018-09-28T04:56:49.288Z,7.17
2018-09-28T04:59:17.460Z,6.23
2018-09-28T05:01:45.623Z,6.70
2018-09-28T05:04:13.764Z,8.50
2018-09-28T05:06:41.912Z,8.90
2018-09-28T05:09:12.045Z,6.13
2018-09-28T05:11:40.308Z,6.83
2018-09-28T05:14:08.668Z,7.60
2018-09-28T05:16:36.856Z,8.53
2018-09-28T05:19:05.032Z,7.70
2018-09-28T05:21:33.257Z,13.73
2018-09-28T05:24:01.394Z,6.87
2018-09-28T05:26:29.565Z,8.60
2018-09-28T05:28:57.884Z,7.40
2018-09-28T05:31:26.145Z,8.63
2018-09-28T05:33:54.353Z,9.17
2018-09-28T05:36:22.500Z,7.53
2018-09-28T05:38:50.641Z,8.20
2018-09-28T05:41:18.814Z,11.00
2018-09-28T05:43:46.962Z,7.60
2018-09-28T05:46:15.136Z,7.10
2018-09-28T05:48:43.263Z,8.00
2018-09-28T05:51:11.385Z,9.27
2018-09-28T05:53:40.082Z,10.23
2018-09-28T05:56:08.266Z,7.23
2018-09-28T05:58:41.972Z,8.33
2018-09-28T06:02:15.692Z,8.50
2018-09-28T06:04:49.077Z,7.10
2018-09-28T06:07:17.225Z,8.10
2018-09-28T06:09:45.369Z,7.80
2018-09-28T06:12:13.517Z,10.90
2018-09-28T06:14:41.648Z,7.83
2018-09-28T06:17:09.797Z,9.53
2018-09-28T06:19:37.941Z,9.20
2018-09-28T06:22:06.108Z,11.00
2018-09-28T06:24:34.234Z,7.50
2018-09-28T06:27:02.373Z,9.30
2018-09-28T06:29:30.524Z,7.80
2018-09-28T06:31:58.665Z,8.30
2018-09-28T06:34:26.805Z,8.80
2018-09-28T06:36:54.970Z,6.90
2018-09-28T06:39:23.093Z,7.73
2018-09-28T06:41:51.314Z,7.83
2018-09-28T06:44:19.406Z,12.90
2018-09-28T06:46:47.552Z,9.77
2018-09-28T06:49:15.705Z,17.00
2018-09-28T06:51:43.838Z,9.63
2018-09-28T06:54:11.987Z,7.63
2018-09-28T06:56:40.149Z,12.13
2018-09-28T06:59:08.301Z,8.83
2018-09-28T07:01:36.458Z,8.53
2018-09-28T07:04:04.730Z,8.30
2018-09-28T07:06:32.861Z,11.97
2018-09-28T07:09:01.021Z,9.97
2018-09-28T07:11:29.165Z,13.70
2018-09-28T07:13:57.320Z,11.00
2018-09-28T07:16:25.514Z,13.30
2018-09-28T07:18:53.613Z,9.90
2018-09-28T07:21:21.777Z,10.27
2018-09-28T07:23:49.947Z,9.10
2018-09-28T07:26:18.123Z,10.47
2018-09-28T07:28:46.257Z,10.20
2018-09-28T07:31:14.409Z,8.70
2018-09-28T07:33:42.621Z,9.80
2018-09-28T07:36:10.944Z,8.90
2018-09-28T07:38:38.965Z,8.27
2018-09-28T07:41:07.293Z,7.23
2018-09-28T07:43:35.436Z,7.73
2018-09-28T07:46:03.644Z,9.50
2018-09-28T07:48:31.803Z,7.23
2018-09-28T07:50:59.944Z,9.20
2018-09-28T07:53:28.092Z,9.87
2018-09-28T07:55:56.299Z,7.77
2018-09-28T07:58:24.404Z,13.37
2018-09-28T08:00:52.628Z,11.97
2018-09-28T08:03:25.957Z,8.83
2018-09-28T08:05:54.141Z,11.40
2018-09-28T08:08:22.485Z,9.57
2018-09-28T08:10:50.669Z,7.73
2018-09-28T08:13:22.673Z,9.57
2018-09-28T08:15:50.845Z,9.07
2018-09-28T08:18:20.754Z,8.97
2018-09-28T08:20:48.901Z,7.20
2018-09-28T08:23:17.193Z,9.20
2018-09-28T08:25:45.281Z,7.67
2018-09-28T08:28:13.561Z,13.90
2018-09-28T08:30:41.705Z,10.87
2018-09-28T08:33:09.889Z,11.17
2018-09-28T08:35:38.029Z,7.90
2018-09-28T08:38:06.217Z,8.23
2018-09-28T08:40:35.028Z,7.20
2018-09-28T08:43:03.196Z,5.37
2018-09-28T08:45:31.441Z,6.30
2018-09-28T08:47:59.604Z,10.00
2018-09-28T08:50:27.756Z,6.80
2018-09-28T08:52:55.901Z,7.40
2018-09-28T08:55:24.046Z,7.30
2018-09-28T08:57:52.237Z,13.27
2018-09-28T09:00:20.397Z,9.47
2018-09-28T09:02:48.561Z,9.60
2018-09-28T09:05:16.735Z,8.40
2018-09-28T09:07:44.905Z,9.73
2018-09-28T09:10:13.064Z,10.63
2018-09-28T09:12:41.689Z,11.03
2018-09-28T09:15:09.840Z,10.73
2018-09-28T09:17:38.109Z,13.00
2018-09-28T09:20:06.278Z,8.30
2018-09-28T09:25:13.901Z,7.67
2018-09-28T09:27:42.085Z,10.40
2018-09-28T09:30:10.296Z,7.70
2018-09-28T09:32:38.385Z,8.90
2018-09-28T09:35:06.542Z,12.60
2018-09-28T09:37:34.720Z,8.73
2018-09-28T09:40:02.868Z,11.37
2018-09-28T09:42:31.100Z,9.30
2018-09-28T09:44:59.190Z,13.30
2018-09-28T09:47:27.342Z,11.73
2018-09-28T09:49:55.501Z,13.57
2018-09-28T09:52:23.630Z,9.97
2018-09-28T09:54:51.798Z,11.77
2018-09-28T09:57:19.948Z,9.10
2018-09-28T09:59:48.109Z,10.60
2018-09-28T10:02:21.613Z,8.47
2018-09-28T10:04:49.778Z,9.50
2018-09-28T10:07:17.949Z,15.40
2018-09-28T10:09:46.241Z,9.83
2018-09-28T10:12:14.418Z,8.87
2018-09-28T10:14:42.521Z,11.57
2018-09-28T10:17:10.685Z,7.47
2018-09-28T10:19:38.866Z,10.57
2018-09-28T10:22:07.001Z,9.00
2018-09-28T10:24:35.190Z,8.40
2018-09-28T10:27:04.818Z,10.10
2018-09-28T10:29:32.981Z,9.23
2018-09-28T10:32:01.134Z,8.97
2018-09-28T10:34:29.343Z,9.03
2018-09-28T10:36:57.504Z,8.67
2018-09-28T10:39:25.735Z,9.43
2018-09-28T10:41:53.819Z,6.70
2018-09-28T10:44:21.977Z,8.03
2018-09-28T10:46:50.157Z,12.60
2018-09-28T10:49:18.426Z,7.77
2018-09-28T10:51:46.548Z,8.20
2018-09-28T10:54:14.712Z,9.47
2018-09-28T10:56:42.994Z,6.80
2018-09-28T10:59:11.164Z,8.63
2018-09-28T11:01:39.306Z,10.73
2018-09-28T11:04:07.507Z,7.80
2018-09-28T11:06:35.658Z,7.37
2018-09-28T11:09:05.291Z,9.87
2018-09-28T11:11:33.444Z,7.87
2018-09-28T11:14:01.616Z,10.30
2018-09-28T11:16:29.760Z,7.47
2018-09-28T11:18:58.023Z,7.30
2018-09-28T11:21:26.185Z,11.80
2018-09-28T11:23:54.236Z,8.83
2018-09-28T11:26:22.465Z,7.93
2018-09-28T11:28:50.546Z,8.57
2018-09-28T11:31:18.726Z,6.30
2018-09-28T11:33:46.924Z,7.17
2018-09-28T11:36:15.050Z,8.57
2018-09-28T11:38:43.225Z,7.23
2018-09-28T11:41:11.397Z,7.40
2018-09-28T11:43:39.557Z,8.93
2018-09-28T11:46:07.786Z,6.70
2018-09-28T11:48:35.929Z,7.07
2018-09-28T11:51:04.077Z,6.53
2018-09-28T11:53:32.243Z,7.73
2018-09-28T11:56:00.409Z,8.30
2018-09-28T11:58:28.607Z,8.37
2018-09-28T12:00:56.769Z,7.90
2018-09-28T12:03:25.016Z,7.33
2018-09-28T12:05:53.077Z,10.73
2018-09-28T12:08:21.353Z,8.07
2018-09-28T12:10:49.519Z,8.20
2018-09-28T12:13:20.586Z,6.23
2018-09-28T12:15:48.747Z,7.17
2018-09-28T12:18:17.011Z,5.60
2018-09-28T12:20:45.117Z,4.80
2018-09-28T12:23:13.265Z,5.13
2018-09-28T12:25:41.405Z,5.47
2018-09-28T12:28:09.549Z,5.90
2018-09-28T12:30:37.789Z,6.03
2018-09-28T12:33:06.219Z,8.10
2018-09-28T12:35:34.390Z,6.23
2018-09-28T12:38:02.709Z,6.90
2018-09-28T12:40:30.871Z,6.07
2018-09-28T12:42:59.018Z,6.63
2018-09-28T12:45:27.292Z,8.53
2018-09-28T12:47:55.349Z,6.23
2018-09-28T12:50:23.557Z,4.80
2018-09-28T12:52:51.654Z,7.43
2018-09-28T12:55:19.840Z,8.37
2018-09-28T12:57:48.009Z,5.13
2018-09-28T13:00:16.297Z,6.40
2018-09-28T13:02:44.361Z,4.63
2018-09-28T13:05:12.547Z,4.03
2018-09-28T13:07:40.746Z,4.00
2018-09-28T13:10:09.156Z,7.80
2018-09-28T13:12:37.385Z,3.17
2018-09-28T13:15:05.712Z,3.80
2018-09-28T13:17:33.750Z,2.77
2018-09-28T13:20:01.935Z,8.60
2018-09-28T13:22:30.131Z,6.10
2018-09-28T13:24:58.278Z,6.13
2018-09-28T13:27:26.496Z,4.57
2018-09-28T13:29:54.688Z,3.27
2018-09-28T13:32:22.975Z,8.17
2018-09-28T13:34:55.883Z,4.07
2018-09-28T13:37:24.237Z,3.40
2018-09-28T13:39:52.401Z,3.90
2018-09-28T13:42:20.702Z,4.37
2018-09-28T13:44:48.887Z,5.43
2018-09-28T13:47:17.028Z,9.03
2018-09-28T13:49:45.193Z,5.27
2018-09-28T13:52:13.354Z,5.37
2018-09-28T13:54:41.606Z,5.37
2018-09-28T13:57:09.741Z,4.80
2018-09-28T13:59:37.904Z,5.60
2018-09-28T14:02:06.113Z,2.70
2018-09-28T14:04:34.318Z,4.70
2018-09-28T14:07:02.553Z,3.10
2018-09-28T14:09:30.628Z,4.60
2018-09-28T14:11:58.819Z,8.20
2018-09-28T14:14:27.045Z,7.70
2018-09-28T14:16:55.220Z,8.93
2018-09-28T14:19:23.371Z,4.57
2018-09-28T14:21:51.541Z,5.70
2018-09-28T14:24:19.838Z,5.13
2018-09-28T14:26:48.016Z,6.00
2018-09-28T14:29:16.126Z,8.20
2018-09-28T14:31:44.297Z,6.03
2018-09-28T14:34:12.534Z,9.07
2018-09-28T14:36:40.696Z,5.50
2018-09-28T14:39:09.541Z,6.20
2018-09-28T14:41:37.713Z,7.20
2018-09-28T14:44:05.928Z,6.40
2018-09-28T14:46:34.178Z,7.57
2018-09-28T14:49:02.373Z,7.80
2018-09-28T14:51:30.803Z,7.43
2018-09-28T14:53:59.009Z,9.37
2018-09-28T14:56:27.223Z,13.00
2018-09-28T14:58:55.397Z,10.90
2018-09-28T15:01:23.849Z,12.40
2018-09-28T15:03:51.834Z,8.33
2018-09-28T15:06:20.012Z,13.50
2018-09-28T15:08:48.590Z,14.33
2018-09-28T15:13:57.081Z,7.43
2018-09-28T15:16:25.324Z,13.90
2018-09-28T15:18:53.411Z,6.70
2018-09-28T15:21:21.566Z,8.07
2018-09-28T15:23:49.749Z,7.43
2018-09-28T15:26:17.897Z,8.13
2018-09-28T15:28:46.074Z,8.10
2018-09-28T15:31:14.233Z,7.40
2018-09-28T15:33:42.386Z,6.53
2018-09-28T15:36:10.559Z,5.50
2018-09-28T15:38:38.705Z,8.60
2018-09-28T15:41:06.900Z,6.57
2018-09-28T15:43:35.830Z,7.43
2018-09-28T15:46:03.987Z,11.43
2018-09-28T15:48:32.199Z,7.70
2018-09-28T15:51:00.354Z,14.17
2018-09-28T15:53:28.529Z,8.73
2018-09-28T15:55:56.669Z,11.27
2018-09-28T15:58:24.846Z,7.50
2018-09-28T16:00:53.005Z,8.57
2018-09-28T16:03:21.614Z,8.33
2018-09-28T16:05:49.765Z,9.30
2018-09-28T16:08:17.909Z,8.47
2018-09-28T16:10:46.077Z,13.50
2018-09-28T16:13:14.257Z,7.37
2018-09-28T16:15:42.413Z,7.13
2018-09-28T16:18:10.565Z,8.63
2018-09-28T16:20:38.724Z,10.50
2018-09-28T16:23:07.007Z,8.80
2018-09-28T16:25:35.156Z,7.80
2018-09-28T16:28:03.297Z,9.20
2018-09-28T16:30:31.477Z,10.67
2018-09-28T16:32:59.627Z,10.53
2018-09-28T16:35:27.825Z,7.47
2018-09-28T16:37:55.975Z,7.70
2018-09-28T16:40:24.137Z,9.27
2018-09-28T16:42:52.292Z,6.70
2018-09-28T16:45:20.447Z,8.83
2018-09-28T16:47:48.601Z,7.13
2018-09-28T16:50:16.730Z,7.47
2018-09-28T16:52:45.949Z,11.27
2018-09-28T16:55:14.121Z,6.00
2018-09-28T16:57:42.318Z,11.20
2018-09-28T17:00:10.447Z,8.70
2018-09-28T17:02:39.418Z,10.67
2018-09-28T17:05:07.808Z,9.80
2018-09-28T17:07:35.961Z,11.93
2018-09-28T17:10:04.156Z,10.53
2018-09-28T17:12:32.350Z,10.10
2018-09-28T17:15:00.519Z,10.73
2018-09-28T17:17:28.689Z,9.87
2018-09-28T17:19:56.846Z,12.50
2018-09-28T17:22:25.106Z,13.33
2018-09-28T17:24:53.222Z,10.20
2018-09-28T17:27:21.433Z,14.30
2018-09-28T17:29:49.598Z,11.03
2018-09-28T17:32:17.752Z,9.00
2018-09-28T17:34:46.041Z,10.43
2018-09-28T17:37:14.181Z,12.10
2018-09-28T17:39:42.341Z,8.97
2018-09-28T17:42:10.622Z,13.93
2018-09-28T17:44:38.791Z,8.30
2018-09-28T17:47:06.949Z,10.87
2018-09-28T17:49:35.130Z,14.47
2018-09-28T17:52:03.280Z,9.77
2018-09-28T17:54:31.437Z,8.27
2018-09-28T17:56:59.607Z,9.57
2018-09-28T17:59:27.803Z,5.73
2018-09-28T18:01:55.920Z,7.33
2018-09-28T18:04:24.191Z,7.40
2018-09-28T18:06:52.320Z,7.50
2018-09-28T18:09:20.489Z,5.73
2018-09-28T18:11:48.657Z,6.83
2018-09-28T18:14:16.821Z,6.73
2018-09-28T18:16:45.034Z,6.20
2018-09-28T18:19:13.198Z,8.10
2018-09-28T18:21:41.369Z,4.40
2018-09-28T18:24:09.533Z,6.00
2018-09-28T18:26:37.741Z,4.30
2018-09-28T18:29:05.935Z,3.63
2018-09-28T18:31:34.085Z,6.40
2018-09-28T18:34:02.233Z,4.70
2018-09-28T18:36:30.400Z,3.00
2018-09-28T18:38:58.549Z,3.87
2018-09-28T18:41:26.719Z,3.50
2018-09-28T18:43:54.870Z,2.83
2018-09-28T18:46:23.061Z,3.30
2018-09-28T18:48:51.237Z,2.77
2018-09-28T18:51:19.415Z,5.50
2018-09-28T18:53:47.589Z,3.70
2018-09-28T18:56:16.021Z,2.60
2018-09-28T18:58:44.243Z,3.60
2018-09-28T19:01:14.836Z,3.20
2018-09-28T19:03:43.037Z,4.13
2018-09-28T19:06:11.205Z,5.63
2018-09-28T19:08:39.333Z,3.70
2018-09-28T19:11:07.583Z,4.60
2018-09-28T19:13:35.874Z,3.50
2018-09-28T19:16:04.068Z,4.20
2018-09-28T19:18:32.302Z,5.47
2018-09-28T19:21:00.473Z,5.20
2018-09-28T19:23:28.650Z,5.27
2018-09-28T19:25:56.841Z,4.70
2018-09-28T19:28:25.181Z,5.07
2018-09-28T19:30:53.343Z,4.87
2018-09-28T19:33:21.486Z,6.50
2018-09-28T19:35:49.665Z,8.73
2018-09-28T19:38:17.873Z,4.60
2018-09-28T19:40:45.821Z,5.33
2018-09-28T19:43:13.993Z,6.07
2018-09-28T19:45:42.157Z,7.30
2018-09-28T19:48:10.444Z,12.47
2018-09-28T19:50:38.593Z,8.73
2018-09-28T19:53:06.788Z,9.10
2018-09-28T19:55:35.069Z,7.97
2018-09-28T19:58:03.311Z,10.03
2018-09-28T20:00:31.375Z,11.23
2018-09-28T20:02:59.528Z,10.50
2018-09-28T20:05:27.685Z,13.67
2018-09-28T20:07:55.853Z,9.40
2018-09-28T20:10:24.031Z,9.53
2018-09-28T20:12:52.197Z,11.20
2018-09-28T20:15:20.353Z,10.07
2018-09-28T20:17:48.521Z,9.63
2018-09-28T20:20:16.691Z,14.17
2018-09-28T20:22:44.841Z,16.17
2018-09-28T20:25:13.005Z,11.73
2018-09-28T20:27:41.178Z,11.20
2018-09-28T20:30:09.345Z,13.17
2018-09-28T20:32:37.575Z,11.67
2018-09-28T20:35:05.728Z,13.93
2018-09-28T20:37:33.909Z,13.33
2018-09-28T20:40:02.964Z,14.60
2018-09-28T20:42:31.147Z,16.80
2018-09-28T20:44:59.333Z,13.87
2018-09-28T20:47:27.534Z,15.63
2018-09-28T20:49:55.704Z,21.40
2018-09-28T20:52:23.861Z,14.57
2018-09-28T20:54:52.021Z,16.83
2018-09-28T20:57:20.185Z,16.17
2018-09-28T20:59:48.364Z,18.97
2018-09-28T21:02:16.537Z,16.03
2018-09-28T21:04:44.704Z,14.70
2018-09-28T21:07:12.859Z,16.47
2018-09-28T21:09:41.720Z,28.50
2018-09-28T21:12:09.925Z,15.53
2018-09-28T21:14:38.093Z,14.73
2018-09-28T21:17:06.341Z,14.87
2018-09-28T21:19:34.482Z,16.30
2018-09-28T21:22:02.664Z,16.53
2018-09-28T21:24:30.826Z,14.33
2018-09-28T21:26:58.985Z,19.83
2018-09-28T21:29:27.174Z,16.40
2018-09-28T21:31:55.346Z,14.57
2018-09-28T21:34:23.515Z,13.13
2018-09-28T21:36:51.657Z,19.77
2018-09-28T21:39:19.842Z,12.70
2018-09-28T21:41:48.010Z,15.10
2018-09-28T21:44:16.173Z,12.90
2018-09-28T21:46:44.345Z,10.87
2018-09-28T21:49:12.505Z,12.80
2018-09-28T21:51:40.637Z,15.53
2018-09-28T21:54:08.834Z,17.13
2018-09-28T21:56:37.021Z,14.33
2018-09-28T21:59:05.206Z,13.83
2018-09-28T22:01:33.357Z,11.97
2018-09-28T22:04:01.493Z,13.57
2018-09-28T22:06:29.642Z,14.27
2018-09-28T22:08:57.793Z,11.90
2018-09-28T22:11:25.957Z,14.27
2018-09-28T22:13:54.159Z,22.53
2018-09-28T22:16:22.274Z,16.00
2018-09-28T22:18:50.430Z,11.00
2018-09-28T22:21:18.582Z,18.43
2018-09-28T22:23:46.731Z,16.67
2018-09-28T22:26:14.894Z,14.30
2018-09-28T22:28:43.057Z,7.77
2018-09-28T22:31:11.205Z,9.73
2018-09-28T22:33:39.385Z,10.30
2018-09-28T22:36:07.557Z,5.97
2018-09-28T22:38:35.738Z,11.63
2018-09-28T22:41:05.874Z,5.37
2018-09-28T22:43:35.021Z,5.63
2018-09-28T22:46:03.317Z,5.90
2018-09-28T22:48:31.482Z,4.27
2018-09-28T22:50:59.641Z,5.23
2018-09-28T22:53:27.784Z,4.20
2018-09-28T22:55:55.941Z,8.47
2018-09-28T22:58:24.085Z,4.17
2018-09-28T23:00:52.237Z,4.80
2018-09-28T23:03:20.409Z,4.83
2018-09-28T23:05:48.563Z,5.90
2018-09-28T23:08:16.712Z,9.27
2018-09-28T23:10:44.944Z,18.07
2018-09-28T23:13:13.037Z,5.57
2018-09-28T23:15:41.206Z,13.23
2018-09-28T23:18:09.352Z,3.27
2018-09-28T23:20:37.493Z,6.80
2018-09-28T23:23:05.650Z,3.30
2018-09-28T23:25:33.785Z,5.03
2018-09-28T23:28:01.908Z,5.77
2018-09-28T23:30:30.058Z,4.73
2018-09-28T23:32:58.216Z,3.90
2018-09-28T23:35:26.369Z,5.30
2018-09-28T23:37:54.483Z,8.80
2018-09-28T23:40:22.684Z,4.50
2018-09-28T23:42:50.841Z,11.30
2018-09-28T23:45:19.298Z,3.27
2018-09-28T23:47:47.465Z,2.60
2018-09-28T23:50:15.665Z,7.17
2018-09-28T23:52:43.857Z,5.27
2018-09-28T23:55:12.040Z,6.53
2018-09-28T23:57:40.205Z,8.43
